sensor_id;sensor_type;location;lat;lon;timestamp;P1;P2;P0
44045;PMS7003;29709;52.396;16.796;2023-07-16T00:02:40;6;5;4
44045;PMS7003;29709;52.396;16.796;2023-07-16T00:05:53;7;7;6
44045;PMS7003;29709;52.396;16.796;2023-07-16T00:09:08;6;5;4
44045;PMS7003;29709;52.396;16.796;2023-07-16T00:12:21;7;7;6
44045;PMS7003;29709;52.396;16.796;2023-07-16T00:15:34;6;6;6
44045;PMS7003;29709;52.396;16.796;2023-07-16T00:18:47;7;5;4
44045;PMS7003;29709;52.396;16.796;2023-07-16T00:22:00;7;6;6
44045;PMS7003;29709;52.396;16.796;2023-07-16T00:25:13;6;5;4
44045;PMS7003;29709;52.396;16.796;2023-07-16T00:28:26;8;8;8
44045;PMS7003;29709;52.396;16.796;2023-07-16T00:31:39;8;7;5
44045;PMS7003;29709;52.396;16.796;2023-07-16T00:34:53;7;6;5
44045;PMS7003;29709;52.396;16.796;2023-07-16T00:38:06;6;6;5
44045;PMS7003;29709;52.396;16.796;2023-07-16T00:41:19;1;0;0
44045;PMS7003;29709;52.396;16.796;2023-07-16T00:44:32;6;6;5
44045;PMS7003;29709;52.396;16.796;2023-07-16T00:47:45;7;7;6
44045;PMS7003;29709;52.396;16.796;2023-07-16T00:50:59;6;5;4
44045;PMS7003;29709;52.396;16.796;2023-07-16T00:54:14;5;5;4
44045;PMS7003;29709;52.396;16.796;2023-07-16T00:57:27;7;6;5
44045;PMS7003;29709;52.396;16.796;2023-07-16T01:00:41;8;7;6
44045;PMS7003;29709;52.396;16.796;2023-07-16T01:03:55;9;6;5
44045;PMS7003;29709;52.396;16.796;2023-07-16T01:07:08;5;5;4
44045;PMS7003;29709;52.396;16.796;2023-07-16T01:10:25;8;7;7
44045;PMS7003;29709;52.396;16.796;2023-07-16T01:13:38;8;8;6
44045;PMS7003;29709;52.396;16.796;2023-07-16T01:16:52;6;6;6
44045;PMS7003;29709;52.396;16.796;2023-07-16T01:20:11;6;6;5
44045;PMS7003;29709;52.396;16.796;2023-07-16T01:30:14;9;7;7
44045;PMS7003;29709;52.396;16.796;2023-07-16T01:33:29;8;7;5
44045;PMS7003;29709;52.396;16.796;2023-07-16T01:36:42;9;7;6
44045;PMS7003;29709;52.396;16.796;2023-07-16T01:39:57;7;6;5
44045;PMS7003;29709;52.396;16.796;2023-07-16T01:43:10;13;8;7
44045;PMS7003;29709;52.396;16.796;2023-07-16T01:46:24;9;6;5
44045;PMS7003;29709;52.396;16.796;2023-07-16T01:49:38;7;7;6
44045;PMS7003;29709;52.396;16.796;2023-07-16T01:52:54;9;9;7
44045;PMS7003;29709;52.396;16.796;2023-07-16T01:56:07;8;6;5
44045;PMS7003;29709;52.396;16.796;2023-07-16T01:59:21;9;8;6
44045;PMS7003;29709;52.396;16.796;2023-07-16T02:02:34;8;7;6
44045;PMS7003;29709;52.396;16.796;2023-07-16T02:05:47;8;8;7
44045;PMS7003;29709;52.396;16.796;2023-07-16T02:09:00;9;9;7
44045;PMS7003;29709;52.396;16.796;2023-07-16T02:12:13;11;10;8
44045;PMS7003;29709;52.396;16.796;2023-07-16T02:15:26;8;7;6
44045;PMS7003;29709;52.396;16.796;2023-07-16T02:18:40;10;9;8
44045;PMS7003;29709;52.396;16.796;2023-07-16T02:21:53;11;8;7
44045;PMS7003;29709;52.396;16.796;2023-07-16T02:25:07;11;9;7
44045;PMS7003;29709;52.396;16.796;2023-07-16T02:28:20;10;8;6
44045;PMS7003;29709;52.396;16.796;2023-07-16T02:31:33;9;7;6
44045;PMS7003;29709;52.396;16.796;2023-07-16T02:34:46;9;8;7
44045;PMS7003;29709;52.396;16.796;2023-07-16T02:38:00;7;7;6
44045;PMS7003;29709;52.396;16.796;2023-07-16T02:41:13;6;5;4
44045;PMS7003;29709;52.396;16.796;2023-07-16T02:44:26;8;7;6
44045;PMS7003;29709;52.396;16.796;2023-07-16T02:47:39;9;7;7
44045;PMS7003;29709;52.396;16.796;2023-07-16T02:50:52;9;7;6
44045;PMS7003;29709;52.396;16.796;2023-07-16T02:54:05;11;7;6
44045;PMS7003;29709;52.396;16.796;2023-07-16T02:57:18;8;7;6
44045;PMS7003;29709;52.396;16.796;2023-07-16T03:00:31;10;9;7
44045;PMS7003;29709;52.396;16.796;2023-07-16T03:03:44;8;8;7
44045;PMS7003;29709;52.396;16.796;2023-07-16T03:06:57;7;7;6
44045;PMS7003;29709;52.396;16.796;2023-07-16T03:10:11;8;8;7
44045;PMS7003;29709;52.396;16.796;2023-07-16T03:13:24;7;6;5
44045;PMS7003;29709;52.396;16.796;2023-07-16T03:16:37;8;6;6
44045;PMS7003;29709;52.396;16.796;2023-07-16T03:19:50;10;8;7
44045;PMS7003;29709;52.396;16.796;2023-07-16T03:23:04;8;7;6
44045;PMS7003;29709;52.396;16.796;2023-07-16T03:26:17;9;8;7
44045;PMS7003;29709;52.396;16.796;2023-07-16T03:29:30;8;8;6
44045;PMS7003;29709;52.396;16.796;2023-07-16T03:32:45;9;7;5
44045;PMS7003;29709;52.396;16.796;2023-07-16T03:35:58;7;6;5
44045;PMS7003;29709;52.396;16.796;2023-07-16T03:39:12;10;8;6
44045;PMS7003;29709;52.396;16.796;2023-07-16T03:42:25;9;8;6
44045;PMS7003;29709;52.396;16.796;2023-07-16T03:45:38;6;5;4
44045;PMS7003;29709;52.396;16.796;2023-07-16T03:48:52;7;7;5
44045;PMS7003;29709;52.396;16.796;2023-07-16T03:52:06;10;8;7
44045;PMS7003;29709;52.396;16.796;2023-07-16T03:55:19;12;8;7
44045;PMS7003;29709;52.396;16.796;2023-07-16T03:58:32;6;6;5
44045;PMS7003;29709;52.396;16.796;2023-07-16T04:01:46;8;8;6
44045;PMS7003;29709;52.396;16.796;2023-07-16T04:04:59;7;7;6
44045;PMS7003;29709;52.396;16.796;2023-07-16T04:08:12;10;8;7
44045;PMS7003;29709;52.396;16.796;2023-07-16T04:11:26;8;8;7
44045;PMS7003;29709;52.396;16.796;2023-07-16T04:14:39;5;4;2
44045;PMS7003;29709;52.396;16.796;2023-07-16T04:17:52;7;6;6
44045;PMS7003;29709;52.396;16.796;2023-07-16T04:21:05;10;8;7
44045;PMS7003;29709;52.396;16.796;2023-07-16T04:27:39;9;8;7
44045;PMS7003;29709;52.396;16.796;2023-07-16T04:30:56;9;7;7
44045;PMS7003;29709;52.396;16.796;2023-07-16T04:34:09;11;9;7
44045;PMS7003;29709;52.396;16.796;2023-07-16T04:37:22;8;7;6
44045;PMS7003;29709;52.396;16.796;2023-07-16T04:40:35;9;7;6
44045;PMS7003;29709;52.396;16.796;2023-07-16T04:43:48;9;8;7
44045;PMS7003;29709;52.396;16.796;2023-07-16T04:47:02;10;8;7
44045;PMS7003;29709;52.396;16.796;2023-07-16T04:50:15;8;7;7
44045;PMS7003;29709;52.396;16.796;2023-07-16T04:53:29;7;7;6
44045;PMS7003;29709;52.396;16.796;2023-07-16T04:56:42;5;5;4
44045;PMS7003;29709;52.396;16.796;2023-07-16T04:59:55;6;5;4
44045;PMS7003;29709;52.396;16.796;2023-07-16T05:03:09;6;6;5
44045;PMS7003;29709;52.396;16.796;2023-07-16T05:06:22;6;5;3
44045;PMS7003;29709;52.396;16.796;2023-07-16T05:09:35;5;4;4
44045;PMS7003;29709;52.396;16.796;2023-07-16T05:12:48;6;6;5
44045;PMS7003;29709;52.396;16.796;2023-07-16T05:16:01;4;3;3
44045;PMS7003;29709;52.396;16.796;2023-07-16T05:19:15;2;2;1
44045;PMS7003;29709;52.396;16.796;2023-07-16T05:22:28;5;4;3
44045;PMS7003;29709;52.396;16.796;2023-07-16T05:29:01;5;4;4
44045;PMS7003;29709;52.396;16.796;2023-07-16T05:32:15;3;3;2
44045;PMS7003;29709;52.396;16.796;2023-07-16T05:35:28;4;3;3
44045;PMS7003;29709;52.396;16.796;2023-07-16T05:38:41;4;3;2
44045;PMS7003;29709;52.396;16.796;2023-07-16T05:41:54;3;2;2
44045;PMS7003;29709;52.396;16.796;2023-07-16T05:45:07;2;1;1
44045;PMS7003;29709;52.396;16.796;2023-07-16T05:48:21;3;2;1
44045;PMS7003;29709;52.396;16.796;2023-07-16T05:51:34;3;3;3
44045;PMS7003;29709;52.396;16.796;2023-07-16T05:54:47;4;3;2
44045;PMS7003;29709;52.396;16.796;2023-07-16T06:01:20;3;2;2
44045;PMS7003;29709;52.396;16.796;2023-07-16T06:04:33;2;2;2
44045;PMS7003;29709;52.396;16.796;2023-07-16T06:07:46;3;1;1
44045;PMS7003;29709;52.396;16.796;2023-07-16T06:10:59;3;2;2
44045;PMS7003;29709;52.396;16.796;2023-07-16T06:14:12;2;2;2
44045;PMS7003;29709;52.396;16.796;2023-07-16T06:17:25;3;3;2
44045;PMS7003;29709;52.396;16.796;2023-07-16T06:20:38;1;1;1
44045;PMS7003;29709;52.396;16.796;2023-07-16T06:23:57;2;2;1
44045;PMS7003;29709;52.396;16.796;2023-07-16T06:27:11;2;1;1
44045;PMS7003;29709;52.396;16.796;2023-07-16T06:30:24;2;2;1
44045;PMS7003;29709;52.396;16.796;2023-07-16T06:33:37;1;0;0
44045;PMS7003;29709;52.396;16.796;2023-07-16T06:36:50;3;1;1
44045;PMS7003;29709;52.396;16.796;2023-07-16T06:40:07;1;1;0
44045;PMS7003;29709;52.396;16.796;2023-07-16T06:43:21;1;1;1
44045;PMS7003;29709;52.396;16.796;2023-07-16T06:46:35;2;1;0
44045;PMS7003;29709;52.396;16.796;2023-07-16T06:49:48;2;0;0
44045;PMS7003;29709;52.396;16.796;2023-07-16T06:53:01;1;1;0
44045;PMS7003;29709;52.396;16.796;2023-07-16T06:56:15;2;1;0
44045;PMS7003;29709;52.396;16.796;2023-07-16T06:59:28;1;1;1
44045;PMS7003;29709;52.396;16.796;2023-07-16T07:02:42;2;1;1
44045;PMS7003;29709;52.396;16.796;2023-07-16T07:05:55;1;1;0
44045;PMS7003;29709;52.396;16.796;2023-07-16T07:09:08;2;1;1
44045;PMS7003;29709;52.396;16.796;2023-07-16T07:12:21;2;1;0
44045;PMS7003;29709;52.396;16.796;2023-07-16T07:15:34;1;0;0
44045;PMS7003;29709;52.396;16.796;2023-07-16T07:18:47;0;0;0
44045;PMS7003;29709;52.396;16.796;2023-07-16T07:22:00;2;1;1
44045;PMS7003;29709;52.396;16.796;2023-07-16T07:25:14;0;0;0
44045;PMS7003;29709;52.396;16.796;2023-07-16T07:28:27;0;0;0
44045;PMS7003;29709;52.396;16.796;2023-07-16T07:31:41;1;1;1
44045;PMS7003;29709;52.396;16.796;2023-07-16T07:34:54;1;1;1
44045;PMS7003;29709;52.396;16.796;2023-07-16T07:38:07;1;1;1
44045;PMS7003;29709;52.396;16.796;2023-07-16T07:41:20;2;2;1
44045;PMS7003;29709;52.396;16.796;2023-07-16T07:44:33;1;1;1
44045;PMS7003;29709;52.396;16.796;2023-07-16T07:47:47;1;1;1
44045;PMS7003;29709;52.396;16.796;2023-07-16T07:51:01;1;1;1
44045;PMS7003;29709;52.396;16.796;2023-07-16T07:54:14;1;1;0
44045;PMS7003;29709;52.396;16.796;2023-07-16T07:57:29;2;2;1
44045;PMS7003;29709;52.396;16.796;2023-07-16T08:00:42;0;0;0
44045;PMS7003;29709;52.396;16.796;2023-07-16T08:03:55;1;1;1
44045;PMS7003;29709;52.396;16.796;2023-07-16T08:07:08;1;1;1
44045;PMS7003;29709;52.396;16.796;2023-07-16T08:10:21;0;0;0
44045;PMS7003;29709;52.396;16.796;2023-07-16T08:13:35;2;2;2
44045;PMS7003;29709;52.396;16.796;2023-07-16T08:16:48;1;0;0
44045;PMS7003;29709;52.396;16.796;2023-07-16T08:20:01;1;0;0
44045;PMS7003;29709;52.396;16.796;2023-07-16T08:23:15;1;1;1
44045;PMS7003;29709;52.396;16.796;2023-07-16T08:26:29;1;1;1
44045;PMS7003;29709;52.396;16.796;2023-07-16T08:29:42;0;0;0
44045;PMS7003;29709;52.396;16.796;2023-07-16T08:33:30;1;1;1
44045;PMS7003;29709;52.396;16.796;2023-07-16T08:36:43;0;0;0
44045;PMS7003;29709;52.396;16.796;2023-07-16T08:39:56;1;1;0
44045;PMS7003;29709;52.396;16.796;2023-07-16T08:43:10;0;0;0
44045;PMS7003;29709;52.396;16.796;2023-07-16T08:46:26;1;0;0
44045;PMS7003;29709;52.396;16.796;2023-07-16T08:49:40;1;0;0
44045;PMS7003;29709;52.396;16.796;2023-07-16T08:52:54;1;0;0
44045;PMS7003;29709;52.396;16.796;2023-07-16T08:56:08;1;0;0
44045;PMS7003;29709;52.396;16.796;2023-07-16T08:59:22;0;0;0
44045;PMS7003;29709;52.396;16.796;2023-07-16T09:02:35;0;0;0
44045;PMS7003;29709;52.396;16.796;2023-07-16T09:05:48;0;0;0
44045;PMS7003;29709;52.396;16.796;2023-07-16T09:09:02;0;0;0
44045;PMS7003;29709;52.396;16.796;2023-07-16T09:12:15;1;1;0
44045;PMS7003;29709;52.396;16.796;2023-07-16T09:15:28;1;0;0
44045;PMS7003;29709;52.396;16.796;2023-07-16T09:18:43;0;0;0
44045;PMS7003;29709;52.396;16.796;2023-07-16T09:21:57;0;0;0
44045;PMS7003;29709;52.396;16.796;2023-07-16T09:25:11;1;0;0
44045;PMS7003;29709;52.396;16.796;2023-07-16T09:28:24;0;0;0
44045;PMS7003;29709;52.396;16.796;2023-07-16T09:31:38;0;0;0
44045;PMS7003;29709;52.396;16.796;2023-07-16T09:34:51;0;0;0
44045;PMS7003;29709;52.396;16.796;2023-07-16T09:38:04;0;0;0
44045;PMS7003;29709;52.396;16.796;2023-07-16T09:41:18;0;0;0
44045;PMS7003;29709;52.396;16.796;2023-07-16T09:44:33;1;0;0
44045;PMS7003;29709;52.396;16.796;2023-07-16T09:47:47;0;0;0
44045;PMS7003;29709;52.396;16.796;2023-07-16T09:51:00;0;0;0
44045;PMS7003;29709;52.396;16.796;2023-07-16T09:54:14;1;1;0
44045;PMS7003;29709;52.396;16.796;2023-07-16T09:57:28;0;0;0
44045;PMS7003;29709;52.396;16.796;2023-07-16T10:00:47;0;0;0
44045;PMS7003;29709;52.396;16.796;2023-07-16T10:04:09;0;0;0
44045;PMS7003;29709;52.396;16.796;2023-07-16T10:07:27;0;0;0
44045;PMS7003;29709;52.396;16.796;2023-07-16T10:10:41;0;0;0
44045;PMS7003;29709;52.396;16.796;2023-07-16T10:13:56;0;0;0
44045;PMS7003;29709;52.396;16.796;2023-07-16T10:20:33;0;0;0
44045;PMS7003;29709;52.396;16.796;2023-07-16T10:23:59;0;0;0
44045;PMS7003;29709;52.396;16.796;2023-07-16T10:27:15;0;0;0
44045;PMS7003;29709;52.396;16.796;2023-07-16T10:30:39;1;0;0
44045;PMS7003;29709;52.396;16.796;2023-07-16T10:33:57;1;1;0
44045;PMS7003;29709;52.396;16.796;2023-07-16T10:37:12;0;0;0
44045;PMS7003;29709;52.396;16.796;2023-07-16T10:40:25;0;0;0
44045;PMS7003;29709;52.396;16.796;2023-07-16T10:43:38;0;0;0
44045;PMS7003;29709;52.396;16.796;2023-07-16T10:46:52;0;0;0
44045;PMS7003;29709;52.396;16.796;2023-07-16T10:50:08;1;0;0
44045;PMS7003;29709;52.396;16.796;2023-07-16T10:53:23;0;0;0
44045;PMS7003;29709;52.396;16.796;2023-07-16T10:56:36;0;0;0
44045;PMS7003;29709;52.396;16.796;2023-07-16T10:59:53;2;0;0
44045;PMS7003;29709;52.396;16.796;2023-07-16T11:03:08;0;0;0
44045;PMS7003;29709;52.396;16.796;2023-07-16T11:06:22;0;0;0
44045;PMS7003;29709;52.396;16.796;2023-07-16T11:09:40;0;0;0
44045;PMS7003;29709;52.396;16.796;2023-07-16T11:12:57;0;0;0
44045;PMS7003;29709;52.396;16.796;2023-07-16T11:16:15;0;0;0
44045;PMS7003;29709;52.396;16.796;2023-07-16T11:19:28;0;0;0
44045;PMS7003;29709;52.396;16.796;2023-07-16T11:22:43;1;1;1
44045;PMS7003;29709;52.396;16.796;2023-07-16T11:26:01;0;0;0
44045;PMS7003;29709;52.396;16.796;2023-07-16T11:29:16;0;0;0
44045;PMS7003;29709;52.396;16.796;2023-07-16T11:32:32;1;0;0
44045;PMS7003;29709;52.396;16.796;2023-07-16T11:35:47;0;0;0
44045;PMS7003;29709;52.396;16.796;2023-07-16T11:39:02;0;0;0
44045;PMS7003;29709;52.396;16.796;2023-07-16T11:45:46;0;0;0
44045;PMS7003;29709;52.396;16.796;2023-07-16T11:49:01;3;0;0
44045;PMS7003;29709;52.396;16.796;2023-07-16T11:52:34;0;0;0
44045;PMS7003;29709;52.396;16.796;2023-07-16T11:55:40;3;0;0
44045;PMS7003;29709;52.396;16.796;2023-07-16T11:58:53;2;0;0
44045;PMS7003;29709;52.396;16.796;2023-07-16T12:02:06;1;0;0
44045;PMS7003;29709;52.396;16.796;2023-07-16T12:05:21;0;0;0
44045;PMS7003;29709;52.396;16.796;2023-07-16T12:08:39;2;1;0
44045;PMS7003;29709;52.396;16.796;2023-07-16T12:11:52;0;0;0
44045;PMS7003;29709;52.396;16.796;2023-07-16T12:15:06;0;0;0
44045;PMS7003;29709;52.396;16.796;2023-07-16T12:18:20;1;0;0
44045;PMS7003;29709;52.396;16.796;2023-07-16T12:21:33;1;1;0
44045;PMS7003;29709;52.396;16.796;2023-07-16T12:24:46;1;0;0
44045;PMS7003;29709;52.396;16.796;2023-07-16T12:28:00;0;0;0
44045;PMS7003;29709;52.396;16.796;2023-07-16T12:31:16;0;0;0
44045;PMS7003;29709;52.396;16.796;2023-07-16T12:34:30;1;0;0
44045;PMS7003;29709;52.396;16.796;2023-07-16T12:37:43;1;1;1
44045;PMS7003;29709;52.396;16.796;2023-07-16T12:40:56;1;0;0
44045;PMS7003;29709;52.396;16.796;2023-07-16T12:44:10;0;0;0
44045;PMS7003;29709;52.396;16.796;2023-07-16T12:47:23;0;0;0
44045;PMS7003;29709;52.396;16.796;2023-07-16T12:50:36;1;0;0
44045;PMS7003;29709;52.396;16.796;2023-07-16T12:53:49;0;0;0
44045;PMS7003;29709;52.396;16.796;2023-07-16T12:57:02;1;1;0
44045;PMS7003;29709;52.396;16.796;2023-07-16T13:00:16;0;0;0
44045;PMS7003;29709;52.396;16.796;2023-07-16T13:03:29;1;1;0
44045;PMS7003;29709;52.396;16.796;2023-07-16T13:06:42;0;0;0
44045;PMS7003;29709;52.396;16.796;2023-07-16T13:10:00;0;0;0
44045;PMS7003;29709;52.396;16.796;2023-07-16T13:13:13;0;0;0
44045;PMS7003;29709;52.396;16.796;2023-07-16T13:16:26;1;0;0
44045;PMS7003;29709;52.396;16.796;2023-07-16T13:19:39;0;0;0
44045;PMS7003;29709;52.396;16.796;2023-07-16T13:22:52;3;1;0
44045;PMS7003;29709;52.396;16.796;2023-07-16T13:26:05;0;0;0
44045;PMS7003;29709;52.396;16.796;2023-07-16T13:29:18;0;0;0
44045;PMS7003;29709;52.396;16.796;2023-07-16T13:32:32;2;1;0
44045;PMS7003;29709;52.396;16.796;2023-07-16T13:35:46;1;0;0
44045;PMS7003;29709;52.396;16.796;2023-07-16T13:38:59;1;0;0
44045;PMS7003;29709;52.396;16.796;2023-07-16T13:42:12;2;1;1
44045;PMS7003;29709;52.396;16.796;2023-07-16T13:45:25;2;1;1
44045;PMS7003;29709;52.396;16.796;2023-07-16T13:48:38;2;0;0
44045;PMS7003;29709;52.396;16.796;2023-07-16T13:51:52;3;3;2
44045;PMS7003;29709;52.396;16.796;2023-07-16T13:55:05;0;0;0
44045;PMS7003;29709;52.396;16.796;2023-07-16T13:58:19;2;0;0
44045;PMS7003;29709;52.396;16.796;2023-07-16T14:01:32;3;1;1
44045;PMS7003;29709;52.396;16.796;2023-07-16T14:04:46;2;1;1
44045;PMS7003;29709;52.396;16.796;2023-07-16T14:08:00;0;0;0
44045;PMS7003;29709;52.396;16.796;2023-07-16T14:11:13;1;1;1
44045;PMS7003;29709;52.396;16.796;2023-07-16T14:17:49;2;1;1
44045;PMS7003;29709;52.396;16.796;2023-07-16T14:21:03;1;0;0
44045;PMS7003;29709;52.396;16.796;2023-07-16T14:24:17;1;1;1
44045;PMS7003;29709;52.396;16.796;2023-07-16T14:27:30;1;1;1
44045;PMS7003;29709;52.396;16.796;2023-07-16T14:30:45;1;0;0
44045;PMS7003;29709;52.396;16.796;2023-07-16T14:33:58;2;2;1
44045;PMS7003;29709;52.396;16.796;2023-07-16T14:37:12;1;1;0
44045;PMS7003;29709;52.396;16.796;2023-07-16T14:40:29;2;1;1
44045;PMS7003;29709;52.396;16.796;2023-07-16T14:43:42;0;0;0
44045;PMS7003;29709;52.396;16.796;2023-07-16T14:46:58;1;1;1
44045;PMS7003;29709;52.396;16.796;2023-07-16T14:50:11;0;0;0
44045;PMS7003;29709;52.396;16.796;2023-07-16T14:53:25;0;0;0
44045;PMS7003;29709;52.396;16.796;2023-07-16T14:56:38;2;1;1
44045;PMS7003;29709;52.396;16.796;2023-07-16T14:59:51;1;1;0
44045;PMS7003;29709;52.396;16.796;2023-07-16T15:03:05;1;0;0
44045;PMS7003;29709;52.396;16.796;2023-07-16T15:06:18;2;1;1
44045;PMS7003;29709;52.396;16.796;2023-07-16T15:09:31;1;1;1
44045;PMS7003;29709;52.396;16.796;2023-07-16T15:12:45;0;0;0
44045;PMS7003;29709;52.396;16.796;2023-07-16T15:15:58;0;0;0
44045;PMS7003;29709;52.396;16.796;2023-07-16T15:19:11;0;0;0
44045;PMS7003;29709;52.396;16.796;2023-07-16T15:22:25;0;0;0
44045;PMS7003;29709;52.396;16.796;2023-07-16T15:25:42;0;0;0
44045;PMS7003;29709;52.396;16.796;2023-07-16T15:28:55;0;0;0
44045;PMS7003;29709;52.396;16.796;2023-07-16T15:32:08;0;0;0
44045;PMS7003;29709;52.396;16.796;2023-07-16T15:35:22;3;2;1
44045;PMS7003;29709;52.396;16.796;2023-07-16T15:38:35;1;1;1
44045;PMS7003;29709;52.396;16.796;2023-07-16T15:41:48;0;0;0
44045;PMS7003;29709;52.396;16.796;2023-07-16T15:45:01;0;0;0
44045;PMS7003;29709;52.396;16.796;2023-07-16T15:48:14;0;0;0
44045;PMS7003;29709;52.396;16.796;2023-07-16T15:51:27;1;0;0
44045;PMS7003;29709;52.396;16.796;2023-07-16T15:54:41;1;1;0
44045;PMS7003;29709;52.396;16.796;2023-07-16T16:01:13;2;1;1
44045;PMS7003;29709;52.396;16.796;2023-07-16T16:04:26;1;1;1
44045;PMS7003;29709;52.396;16.796;2023-07-16T16:07:42;1;0;0
44045;PMS7003;29709;52.396;16.796;2023-07-16T16:10:57;0;0;0
44045;PMS7003;29709;52.396;16.796;2023-07-16T16:14:10;0;0;0
44045;PMS7003;29709;52.396;16.796;2023-07-16T16:17:23;0;0;0
44045;PMS7003;29709;52.396;16.796;2023-07-16T16:20:37;0;0;0
44045;PMS7003;29709;52.396;16.796;2023-07-16T16:23:51;0;0;0
44045;PMS7003;29709;52.396;16.796;2023-07-16T16:27:04;0;0;0
44045;PMS7003;29709;52.396;16.796;2023-07-16T16:30:18;1;0;0
44045;PMS7003;29709;52.396;16.796;2023-07-16T16:33:32;1;0;0
44045;PMS7003;29709;52.396;16.796;2023-07-16T16:36:45;0;0;0
44045;PMS7003;29709;52.396;16.796;2023-07-16T16:39:58;2;0;0
44045;PMS7003;29709;52.396;16.796;2023-07-16T16:46:35;1;1;0
44045;PMS7003;29709;52.396;16.796;2023-07-16T16:49:49;0;0;0
44045;PMS7003;29709;52.396;16.796;2023-07-16T16:53:02;2;1;1
44045;PMS7003;29709;52.396;16.796;2023-07-16T16:56:16;0;0;0
44045;PMS7003;29709;52.396;16.796;2023-07-16T16:59:29;1;0;0
44045;PMS7003;29709;52.396;16.796;2023-07-16T17:02:45;1;0;0
44045;PMS7003;29709;52.396;16.796;2023-07-16T17:05:58;1;0;0
44045;PMS7003;29709;52.396;16.796;2023-07-16T17:09:13;0;0;0
44045;PMS7003;29709;52.396;16.796;2023-07-16T17:12:26;2;0;0
44045;PMS7003;29709;52.396;16.796;2023-07-16T17:15:43;4;0;0
44045;PMS7003;29709;52.396;16.796;2023-07-16T17:18:57;0;0;0
44045;PMS7003;29709;52.396;16.796;2023-07-16T17:22:10;0;0;0
44045;PMS7003;29709;52.396;16.796;2023-07-16T17:25:28;0;0;0
44045;PMS7003;29709;52.396;16.796;2023-07-16T17:28:41;2;0;0
44045;PMS7003;29709;52.396;16.796;2023-07-16T17:31:54;0;0;0
44045;PMS7003;29709;52.396;16.796;2023-07-16T17:35:12;0;0;0
44045;PMS7003;29709;52.396;16.796;2023-07-16T17:38:25;1;0;0
44045;PMS7003;29709;52.396;16.796;2023-07-16T17:41:38;0;0;0
44045;PMS7003;29709;52.396;16.796;2023-07-16T17:44:51;0;0;0
44045;PMS7003;29709;52.396;16.796;2023-07-16T17:48:06;1;0;0
44045;PMS7003;29709;52.396;16.796;2023-07-16T17:51:24;0;0;0
44045;PMS7003;29709;52.396;16.796;2023-07-16T17:54:37;0;0;0
44045;PMS7003;29709;52.396;16.796;2023-07-16T17:57:50;0;0;0
44045;PMS7003;29709;52.396;16.796;2023-07-16T18:01:03;0;0;0
44045;PMS7003;29709;52.396;16.796;2023-07-16T18:04:18;0;0;0
44045;PMS7003;29709;52.396;16.796;2023-07-16T18:07:33;1;1;0
44045;PMS7003;29709;52.396;16.796;2023-07-16T18:10:46;0;0;0
44045;PMS7003;29709;52.396;16.796;2023-07-16T18:14:00;2;1;1
44045;PMS7003;29709;52.396;16.796;2023-07-16T18:17:13;2;1;0
44045;PMS7003;29709;52.396;16.796;2023-07-16T18:20:26;0;0;0
44045;PMS7003;29709;52.396;16.796;2023-07-16T18:23:40;0;0;0
44045;PMS7003;29709;52.396;16.796;2023-07-16T18:26:54;2;1;1
44045;PMS7003;29709;52.396;16.796;2023-07-16T18:30:08;2;1;0
44045;PMS7003;29709;52.396;16.796;2023-07-16T18:33:22;0;0;0
44045;PMS7003;29709;52.396;16.796;2023-07-16T18:36:36;0;0;0
44045;PMS7003;29709;52.396;16.796;2023-07-16T18:39:52;1;0;0
44045;PMS7003;29709;52.396;16.796;2023-07-16T18:43:06;3;2;1
44045;PMS7003;29709;52.396;16.796;2023-07-16T18:46:20;1;0;0
44045;PMS7003;29709;52.396;16.796;2023-07-16T18:49:33;0;0;0
44045;PMS7003;29709;52.396;16.796;2023-07-16T18:52:47;1;1;0
44045;PMS7003;29709;52.396;16.796;2023-07-16T18:56:00;0;0;0
44045;PMS7003;29709;52.396;16.796;2023-07-16T18:59:13;0;0;0
44045;PMS7003;29709;52.396;16.796;2023-07-16T19:02:26;3;1;0
44045;PMS7003;29709;52.396;16.796;2023-07-16T19:05:40;0;0;0
44045;PMS7003;29709;52.396;16.796;2023-07-16T19:08:53;0;0;0
44045;PMS7003;29709;52.396;16.796;2023-07-16T19:12:07;0;0;0
44045;PMS7003;29709;52.396;16.796;2023-07-16T19:15:21;2;0;0
44045;PMS7003;29709;52.396;16.796;2023-07-16T19:18:34;1;1;0
44045;PMS7003;29709;52.396;16.796;2023-07-16T19:21:49;0;0;0
44045;PMS7003;29709;52.396;16.796;2023-07-16T19:25:02;0;0;0
44045;PMS7003;29709;52.396;16.796;2023-07-16T19:28:17;1;1;1
44045;PMS7003;29709;52.396;16.796;2023-07-16T19:31:30;0;0;0
44045;PMS7003;29709;52.396;16.796;2023-07-16T19:34:43;3;0;0
44045;PMS7003;29709;52.396;16.796;2023-07-16T19:37:59;2;1;0
44045;PMS7003;29709;52.396;16.796;2023-07-16T19:41:13;0;0;0
44045;PMS7003;29709;52.396;16.796;2023-07-16T19:44:26;2;0;0
44045;PMS7003;29709;52.396;16.796;2023-07-16T19:47:39;1;1;0
44045;PMS7003;29709;52.396;16.796;2023-07-16T19:50:53;2;1;0
44045;PMS7003;29709;52.396;16.796;2023-07-16T19:57:27;2;2;1
44045;PMS7003;29709;52.396;16.796;2023-07-16T20:00:47;2;1;1
44045;PMS7003;29709;52.396;16.796;2023-07-16T20:04:00;3;3;2
44045;PMS7003;29709;52.396;16.796;2023-07-16T20:07:13;3;3;2
44045;PMS7003;29709;52.396;16.796;2023-07-16T20:10:27;2;2;2
44045;PMS7003;29709;52.396;16.796;2023-07-16T20:13:40;3;3;2
44045;PMS7003;29709;52.396;16.796;2023-07-16T20:16:53;2;1;1
44045;PMS7003;29709;52.396;16.796;2023-07-16T20:20:07;3;2;2
44045;PMS7003;29709;52.396;16.796;2023-07-16T20:23:23;5;3;2
44045;PMS7003;29709;52.396;16.796;2023-07-16T20:26:39;3;2;2
44045;PMS7003;29709;52.396;16.796;2023-07-16T20:29:52;2;1;1
44045;PMS7003;29709;52.396;16.796;2023-07-16T20:33:05;21;19;15
44045;PMS7003;29709;52.396;16.796;2023-07-16T20:36:18;11;11;9
44045;PMS7003;29709;52.396;16.796;2023-07-16T20:39:31;12;11;10
44045;PMS7003;29709;52.396;16.796;2023-07-16T20:42:44;14;12;11
44045;PMS7003;29709;52.396;16.796;2023-07-16T20:45:58;0;0;0
44045;PMS7003;29709;52.396;16.796;2023-07-16T20:49:12;5;4;3
44045;PMS7003;29709;52.396;16.796;2023-07-16T20:52:25;6;4;4
44045;PMS7003;29709;52.396;16.796;2023-07-16T20:55:38;7;4;4
44045;PMS7003;29709;52.396;16.796;2023-07-16T20:58:51;10;9;8
44045;PMS7003;29709;52.396;16.796;2023-07-16T21:02:05;9;8;6
44045;PMS7003;29709;52.396;16.796;2023-07-16T21:05:18;15;12;11
44045;PMS7003;29709;52.396;16.796;2023-07-16T21:08:32;22;22;17
44045;PMS7003;29709;52.396;16.796;2023-07-16T21:11:45;13;13;11
44045;PMS7003;29709;52.396;16.796;2023-07-16T21:14:58;8;7;6
44045;PMS7003;29709;52.396;16.796;2023-07-16T21:18:11;11;10;9
44045;PMS7003;29709;52.396;16.796;2023-07-16T21:21:30;19;14;11
44045;PMS7003;29709;52.396;16.796;2023-07-16T21:24:43;12;11;9
44045;PMS7003;29709;52.396;16.796;2023-07-16T21:27:57;6;5;4
44045;PMS7003;29709;52.396;16.796;2023-07-16T21:31:13;5;4;3
44045;PMS7003;29709;52.396;16.796;2023-07-16T21:34:26;8;7;5
44045;PMS7003;29709;52.396;16.796;2023-07-16T21:37:39;6;6;5
44045;PMS7003;29709;52.396;16.796;2023-07-16T21:40:52;6;6;4
44045;PMS7003;29709;52.396;16.796;2023-07-16T21:44:06;8;7;6
44045;PMS7003;29709;52.396;16.796;2023-07-16T21:47:19;8;6;5
44045;PMS7003;29709;52.396;16.796;2023-07-16T21:50:32;6;5;4
44045;PMS7003;29709;52.396;16.796;2023-07-16T21:53:45;6;6;5
44045;PMS7003;29709;52.396;16.796;2023-07-16T21:56:58;7;6;6
44045;PMS7003;29709;52.396;16.796;2023-07-16T22:00:12;8;6;5
44045;PMS7003;29709;52.396;16.796;2023-07-16T22:06:48;8;8;7